Airfield :
LOGIN :

Register | Disclaimer

   EN    FR    IT 

 










Legend :    VFR   Marginal VFR   IFR   Intensive IFR   Very Intensive IFR
Visi :
Ceiling :
>= 8 km
>= 3000ft
5 to 8 km
1000 to 3000 ft
1500m to 5 km
500 to 1000 ft
800 to 1500m
200 to 500 ft
< 800m
< 200 ft
Symbols :   Thunderstorms  Fog  Heavy snow  Heavy precipitations  Wind > 20 kt
SIGMETs :     Misc.  Thunderstorms  Icing  Turbulence  Mountain Waves  Volcanic Ashes






- Airport Elevation : 2936 ft


LECH - Calamocha

CURRENT METAR :
  • 190530Z AUTO 09003KT CAVOK 22/19 Q1018

EXPIRED METARs :
  • 190500Z AUTO VRB02KT CAVOK 22/19 Q1018
  • 190430Z AUTO 02002KT 9000 NSC 22/19 Q1018
  • 190400Z AUTO 00000KT CAVOK 22/19 Q1018
  • 190330Z AUTO VRB02KT CAVOK 23/19 Q1018
  • 190300Z AUTO 16004KT 9000 NSC 24/19 Q1018
  • 190230Z AUTO 12001KT CAVOK 23/20 Q1018
  • 190200Z AUTO VRB01KT 9000 NSC 23/20 Q1018
  • 190130Z AUTO 30003KT 190V340 9000 NSC 24/20 Q1019
  • 190100Z AUTO 20005KT CAVOK 24/20 Q1019

Expired Forecast.



MET'MAP, your aeronautical weather chart ! - Copyright ORBIFLY December 2007 - Disclaimer

ORBIFLY MET'MAP TEAM :

Programming & Development : Alexandra Zaïnal
Original concept : Baudouin d'Aumeries
Technical & hardware support : Manuel Goepfert
Assistance : Marc-Olivier Méhu




SOURCES & CREDITS :

   NOAA